Time;durP1;ratioP1;P1;durP2;ratioP2;P2;SDS_P1;SDS_P2;PMS_P1;PMS_P2;Temp;Humidity;BMP_temperature;BMP_pressure;BME280_temperature;BME280_humidity;BME280_pressure;Samples;Min_cycle;Max_cycle;Signal;HPM_P1;HPM_P2
2023/07/09 00:00:50;;;;;;;9.70;5.85;;;18.60;99.90;;;;;;5030269;28;20056;-63
2023/07/09 00:03:19;;;;;;;9.70;5.40;;;18.50;99.90;;;;;;5026402;28;20399;-61
2023/07/09 00:05:48;;;;;;;9.57;5.38;;;18.40;99.90;;;;;;5030507;28;20037;-63
2023/07/09 00:08:29;;;;;;;14.02;5.78;;;18.40;99.90;;;;;;5030969;28;20045;-62
2023/07/09 00:10:57;;;;;;;9.60;5.55;;;18.30;99.90;;;;;;5012010;28;20513;-62
2023/07/09 00:13:25;;;;;;;10.40;5.82;;;18.30;99.90;;;;;;5026231;28;20051;-62
2023/07/09 00:16:07;;;;;;;14.65;6.22;;;18.20;99.90;;;;;;5030434;28;20041;-62
2023/07/09 00:18:35;;;;;;;10.10;5.35;;;18.20;99.90;;;;;;5023886;28;20052;-62
2023/07/09 00:21:01;;;;;;;11.25;5.80;;;18.00;99.90;;;;;;5029926;28;20192;-62
2023/07/09 00:23:29;;;;;;;11.55;5.88;;;18.20;99.90;;;;;;5032649;28;20042;-62
2023/07/09 00:25:56;;;;;;;10.73;5.90;;;18.10;99.90;;;;;;5034651;28;20037;-62
2023/07/09 00:28:23;;;;;;;10.75;5.15;;;18.20;99.90;;;;;;5035158;28;20033;-62
2023/07/09 00:30:50;;;;;;;12.07;5.85;;;18.10;99.90;;;;;;5033227;28;20034;-62
2023/07/09 00:33:20;;;;;;;8.75;5.88;;;18.20;99.90;;;;;;5034986;28;20041;-62
2023/07/09 00:35:50;;;;;;;10.90;5.97;;;18.20;99.90;;;;;;5034129;28;20033;-62
2023/07/09 00:38:22;;;;;;;12.32;5.65;;;18.20;99.90;;;;;;5017276;28;20107;-62
2023/07/09 00:41:02;;;;;;;11.63;5.82;;;18.20;99.90;;;;;;5028855;28;20411;-62
2023/07/09 00:43:36;;;;;;;9.52;5.40;;;18.20;99.90;;;;;;5014161;28;20053;-61
2023/07/09 00:46:20;;;;;;;9.75;5.70;;;18.20;99.90;;;;;;5031052;28;20041;-62
2023/07/09 00:48:51;;;;;;;8.38;5.05;;;18.20;99.90;;;;;;5012381;28;20073;-62
2023/07/09 00:51:21;;;;;;;10.63;5.35;;;18.20;99.90;;;;;;5032035;28;20052;-61
2023/07/09 00:53:53;;;;;;;12.00;5.57;;;18.20;99.90;;;;;;5032965;28;20042;-62
2023/07/09 00:56:38;;;;;;;10.10;5.07;;;18.20;99.90;;;;;;5034179;28;20129;-62
2023/07/09 00:59:08;;;;;;;9.85;5.20;;;18.10;99.90;;;;;;5006691;28;20265;-61
2023/07/09 01:01:36;;;;;;;10.38;5.47;;;18.20;99.90;;;;;;5013251;28;20096;-62
2023/07/09 01:04:04;;;;;;;9.13;5.22;;;18.20;99.90;;;;;;5025570;28;20065;-62
2023/07/09 01:06:44;;;;;;;10.60;5.45;;;18.20;99.90;;;;;;5033642;28;20124;-62
2023/07/09 01:09:12;;;;;;;10.20;5.32;;;18.20;99.90;;;;;;5033859;28;20041;-62
2023/07/09 01:11:39;;;;;;;11.32;5.50;;;18.20;99.90;;;;;;5010431;28;20941;-62
2023/07/09 01:14:09;;;;;;;11.23;6.05;;;18.20;99.90;;;;;;5030892;28;20091;-62
2023/07/09 01:16:48;;;;;;;13.20;6.93;;;18.20;99.90;;;;;;5015058;28;20045;-62
2023/07/09 01:19:16;;;;;;;9.05;5.55;;;18.20;99.90;;;;;;5016190;28;20498;-61
2023/07/09 01:21:43;;;;;;;10.85;6.47;;;18.10;99.90;;;;;;5015207;28;20056;-62
2023/07/09 01:24:46;;;;;;;9.75;6.13;;;18.10;99.90;;;;;;5033916;28;20037;-62
2023/07/09 01:27:14;;;;;;;11.40;6.13;;;18.10;99.90;;;;;;5033056;28;20441;-62
2023/07/09 01:29:42;;;;;;;12.40;5.75;;;18.10;99.90;;;;;;5016044;28;20060;-63
2023/07/09 01:32:14;;;;;;;10.68;6.03;;;18.00;99.90;;;;;;5009490;28;20058;-62
2023/07/09 01:34:41;;;;;;;10.32;6.55;;;18.00;99.90;;;;;;5032936;28;20038;-62
2023/07/09 01:37:08;;;;;;;11.70;6.03;;;18.10;99.90;;;;;;5030884;28;20049;-62
2023/07/09 01:39:35;;;;;;;10.93;6.28;;;18.10;99.90;;;;;;5033662;28;20462;-62
2023/07/09 01:42:08;;;;;;;10.88;5.80;;;18.00;99.90;;;;;;5030596;28;20176;-62
2023/07/09 01:44:38;;;;;;;16.92;6.45;;;18.00;99.90;;;;;;5025861;28;20528;-62
2023/07/09 01:47:05;;;;;;;13.90;6.38;;;18.10;99.90;;;;;;5032366;28;20051;-62
2023/07/09 01:49:32;;;;;;;15.65;6.95;;;18.10;99.90;;;;;;5033669;28;20037;-62
2023/07/09 01:52:01;;;;;;;13.15;6.18;;;18.00;99.90;;;;;;5013966;28;20041;-61
2023/07/09 01:54:30;;;;;;;11.98;6.32;;;17.90;99.90;;;;;;5033369;28;20044;-62
2023/07/09 01:57:24;;;;;;;12.48;6.53;;;17.80;99.90;;;;;;5011790;28;20048;-62
2023/07/09 01:59:52;;;;;;;11.55;6.20;;;17.70;99.90;;;;;;5027772;28;20079;-62
2023/07/09 02:02:22;;;;;;;10.63;5.72;;;17.60;99.90;;;;;;5030995;28;20047;-61
2023/07/09 02:04:54;;;;;;;10.43;6.15;;;17.60;99.90;;;;;;5033168;28;20064;-62
2023/07/09 02:07:23;;;;;;;9.98;5.43;;;17.60;99.90;;;;;;5032751;28;20406;-63
2023/07/09 02:09:51;;;;;;;10.20;5.72;;;17.70;99.90;;;;;;5032220;28;20037;-62
2023/07/09 02:12:18;;;;;;;12.68;5.82;;;17.60;99.90;;;;;;5009427;28;20475;-63
2023/07/09 02:14:46;;;;;;;7.60;5.07;;;17.60;99.90;;;;;;5013714;28;20077;-63
2023/07/09 02:17:15;;;;;;;8.82;5.00;;;17.60;99.90;;;;;;5014803;28;20053;-62
2023/07/09 02:19:42;;;;;;;10.63;5.60;;;17.50;99.90;;;;;;5032010;28;20052;-61
2023/07/09 02:22:11;;;;;;;10.75;5.82;;;17.60;99.90;;;;;;5015399;28;20049;-62
2023/07/09 02:24:38;;;;;;;9.93;5.97;;;17.60;99.90;;;;;;5005988;28;20042;-62
2023/07/09 02:27:06;;;;;;;;;;;17.60;99.90;;;;;;5019312;28;20166;-62
2023/07/09 02:29:34;;;;;;;10.15;5.43;;;17.70;99.90;;;;;;5014705;28;19921;-63
2023/07/09 02:32:00;;;;;;;;;;;17.70;99.90;;;;;;5015136;28;20057;-63
2023/07/09 02:34:30;;;;;;;14.30;6.43;;;17.60;99.90;;;;;;5031587;28;19921;-62
2023/07/09 02:36:58;;;;;;;9.93;5.30;;;17.70;99.90;;;;;;5029420;28;20045;-62
2023/07/09 02:39:26;;;;;;;9.57;5.95;;;17.70;99.90;;;;;;5012996;28;20046;-61
2023/07/09 02:41:53;;;;;;;12.50;6.03;;;17.70;99.90;;;;;;5031478;28;20561;-62
2023/07/09 02:44:20;;;;;;;10.32;5.82;;;17.70;99.90;;;;;;5012985;28;20417;-63
2023/07/09 02:46:47;;;;;;;13.20;6.13;;;17.60;99.90;;;;;;5023975;28;20041;-62
2023/07/09 02:49:14;;;;;;;7.85;4.50;;;17.60;99.90;;;;;;5012614;28;20555;-62
2023/07/09 02:51:41;;;;;;;9.25;5.10;;;17.50;99.90;;;;;;4982717;28;20072;-61
2023/07/09 02:54:08;;;;;;;11.00;5.57;;;17.50;99.90;;;;;;5032339;28;20406;-62
2023/07/09 02:56:35;;;;;;;10.90;5.50;;;17.50;99.90;;;;;;5030724;28;20052;-62
2023/07/09 02:59:02;;;;;;;8.40;4.95;;;17.50;99.90;;;;;;5014015;28;20053;-62
2023/07/09 03:01:34;;;;;;;10.52;5.82;;;17.50;99.90;;;;;;5013442;28;20067;-61
2023/07/09 03:04:03;;;;;;;9.10;5.10;;;17.50;99.90;;;;;;5011291;28;20510;-62
2023/07/09 03:06:35;;;;;;;9.38;5.18;;;17.50;99.90;;;;;;5012658;28;20548;-62
2023/07/09 03:09:04;;;;;;;7.32;5.07;;;17.50;99.90;;;;;;5012794;28;20521;-63
2023/07/09 03:11:32;;;;;;;8.70;5.18;;;17.40;99.90;;;;;;5031897;28;20224;-63
2023/07/09 03:14:00;;;;;;;8.45;5.07;;;17.30;99.90;;;;;;5031614;28;20521;-62
2023/07/09 03:16:31;;;;;;;7.30;4.40;;;17.30;99.90;;;;;;5009529;28;20133;-62
2023/07/09 03:18:59;;;;;;;11.50;5.35;;;17.20;99.90;;;;;;5025839;28;20045;-62
2023/07/09 03:21:27;;;;;;;10.27;5.28;;;17.10;99.90;;;;;;5030036;28;20136;-62
2023/07/09 03:23:54;;;;;;;8.25;4.88;;;17.00;99.90;;;;;;5013393;28;20591;-62
2023/07/09 03:26:21;;;;;;;8.32;5.10;;;16.90;99.90;;;;;;5012543;28;20046;-62
2023/07/09 03:28:48;;;;;;;7.85;5.25;;;16.90;99.90;;;;;;5031755;28;20038;-62
2023/07/09 03:31:15;;;;;;;8.90;4.95;;;16.90;99.90;;;;;;5031076;28;20069;-62
2023/07/09 03:33:43;;;;;;;8.18;4.80;;;16.90;99.90;;;;;;5013383;28;20643;-62
2023/07/09 03:36:09;;;;;;;10.70;5.32;;;17.00;99.90;;;;;;5030157;28;20052;-62
2023/07/09 03:38:36;;;;;;;10.98;5.55;;;17.00;99.90;;;;;;5031492;28;20049;-62
2023/07/09 03:41:04;;;;;;;7.57;4.72;;;17.00;99.90;;;;;;5030068;28;20045;-62
2023/07/09 03:43:31;;;;;;;8.68;4.85;;;17.10;99.90;;;;;;5027101;28;20051;-62
2023/07/09 03:45:57;;;;;;;9.30;5.22;;;17.00;99.90;;;;;;5030723;28;20048;-62
2023/07/09 03:48:24;;;;;;;10.25;5.38;;;17.00;99.90;;;;;;5031186;28;20033;-62
2023/07/09 03:50:51;;;;;;;11.60;5.25;;;17.00;99.90;;;;;;5028980;28;20058;-63
2023/07/09 03:53:18;;;;;;;9.52;5.30;;;17.00;99.90;;;;;;5030758;28;20045;-62
2023/07/09 03:55:47;;;;;;;10.75;5.05;;;17.00;99.90;;;;;;5030949;28;20041;-62
2023/07/09 03:58:14;;;;;;;12.30;5.43;;;17.10;99.90;;;;;;5030459;28;20047;-62
2023/07/09 04:00:41;;;;;;;10.32;5.50;;;17.10;99.90;;;;;;5030752;28;20045;-63
2023/07/09 04:03:08;;;;;;;7.70;4.68;;;17.10;99.90;;;;;;5030592;28;20041;-62
2023/07/09 04:05:35;;;;;;;9.93;5.30;;;17.10;99.90;;;;;;5030615;28;20053;-62
2023/07/09 04:08:03;;;;;;;7.82;4.60;;;17.20;99.90;;;;;;5030948;28;20545;-62
2023/07/09 04:10:30;;;;;;;6.80;4.47;;;17.20;99.90;;;;;;5029523;28;20052;-62
2023/07/09 04:12:57;;;;;;;;;;;17.20;99.90;;;;;;5031663;28;20045;-62
2023/07/09 04:15:23;;;;;;;9.50;5.03;;;17.30;99.90;;;;;;5029950;28;19924;-62
2023/07/09 04:17:51;;;;;;;8.73;5.53;;;17.30;99.90;;;;;;5029990;28;20029;-62
2023/07/09 04:20:18;;;;;;;10.32;5.10;;;17.30;99.90;;;;;;5029435;28;20072;-62
2023/07/09 04:22:46;;;;;;;13.48;5.78;;;17.30;99.90;;;;;;5031133;28;20044;-62
2023/07/09 04:25:13;;;;;;;8.50;5.70;;;17.30;99.90;;;;;;5024246;28;20072;-62
2023/07/09 04:27:40;;;;;;;15.48;5.55;;;17.30;99.90;;;;;;5029951;28;20494;-62
2023/07/09 04:30:14;;;;;;;;;;;17.30;99.90;;;;;;5030552;28;20053;-62
2023/07/09 04:32:43;;;;;;;9.35;5.00;;;17.30;99.90;;;;;;5030173;28;19921;-62
2023/07/09 04:35:11;;;;;;;10.38;5.20;;;17.30;99.90;;;;;;5030496;28;20044;-63
2023/07/09 04:37:39;;;;;;;9.13;5.03;;;17.20;99.90;;;;;;5029463;28;20502;-62
2023/07/09 04:40:10;;;;;;;13.00;5.47;;;17.20;99.90;;;;;;5030979;28;20134;-62
2023/07/09 04:42:39;;;;;;;11.20;5.35;;;17.10;99.90;;;;;;5022507;28;20054;-62
2023/07/09 04:45:07;;;;;;;8.65;4.88;;;17.10;99.90;;;;;;5029853;28;20140;-62
2023/07/09 04:47:34;;;;;;;11.70;5.25;;;17.20;99.90;;;;;;5029892;28;20052;-62
2023/07/09 04:50:03;;;;;;;9.25;5.07;;;17.20;99.90;;;;;;5029613;28;20042;-62
2023/07/09 04:52:30;;;;;;;12.95;5.63;;;17.10;99.90;;;;;;5030820;28;20046;-62
2023/07/09 04:54:57;;;;;;;10.85;5.60;;;17.10;99.90;;;;;;5029717;28;20044;-63
2023/07/09 04:57:26;;;;;;;17.35;6.22;;;17.10;99.90;;;;;;5029472;28;20065;-61
2023/07/09 04:59:53;;;;;;;8.38;5.60;;;17.10;99.90;;;;;;5021805;28;20116;-62
2023/07/09 05:02:20;;;;;;;12.70;5.38;;;17.30;99.90;;;;;;5029764;28;20045;-60
2023/07/09 05:04:46;;;;;;;11.10;5.40;;;17.30;99.90;;;;;;5030096;28;20202;-62
2023/07/09 05:07:13;;;;;;;11.88;6.28;;;17.40;99.90;;;;;;5012295;28;20505;-62
2023/07/09 05:09:40;;;;;;;17.65;6.85;;;17.40;99.90;;;;;;5029755;28;20433;-61
2023/07/09 05:12:08;;;;;;;17.13;7.03;;;17.40;99.90;;;;;;5029325;28;20065;-62
2023/07/09 05:14:35;;;;;;;15.75;7.90;;;17.60;99.90;;;;;;5031758;28;20129;-62
2023/07/09 05:17:02;;;;;;;14.32;7.28;;;17.70;99.90;;;;;;5033674;28;20042;-62
2023/07/09 05:19:28;;;;;;;14.20;6.93;;;17.80;99.90;;;;;;5033155;28;20052;-62
2023/07/09 05:21:55;;;;;;;12.43;7.45;;;17.80;99.90;;;;;;5034321;28;20053;-62
2023/07/09 05:24:22;;;;;;;12.35;7.00;;;18.00;99.90;;;;;;5033657;28;20076;-63
2023/07/09 05:26:52;;;;;;;14.30;7.28;;;18.00;99.90;;;;;;5026105;28;20041;-62
2023/07/09 05:29:19;;;;;;;13.27;7.28;;;18.00;99.90;;;;;;5033320;28;20049;-63
2023/07/09 05:31:45;;;;;;;15.25;6.63;;;18.20;99.90;;;;;;5030939;28;20046;-62
2023/07/09 05:34:12;;;;;;;13.18;7.07;;;18.30;99.90;;;;;;5031721;28;20049;-62
2023/07/09 05:36:39;;;;;;;12.70;6.60;;;18.50;99.90;;;;;;5030783;28;20041;-62
2023/07/09 05:39:06;;;;;;;12.63;6.97;;;18.60;99.90;;;;;;5032494;28;20069;-61
2023/07/09 05:41:33;;;;;;;12.02;6.32;;;18.70;99.90;;;;;;5032399;28;20566;-63
2023/07/09 05:43:59;;;;;;;12.52;6.35;;;18.70;99.90;;;;;;5033280;28;20046;-62
2023/07/09 05:46:27;;;;;;;17.80;8.18;;;18.80;99.90;;;;;;5032253;28;20073;-62
2023/07/09 05:48:54;;;;;;;13.68;7.00;;;18.90;99.90;;;;;;5033537;28;20095;-62
2023/07/09 05:51:24;;;;;;;15.52;7.28;;;18.80;99.90;;;;;;5032227;28;20041;-62
2023/07/09 05:53:50;;;;;;;12.45;6.97;;;18.90;99.90;;;;;;5033214;28;20490;-62
2023/07/09 05:56:17;;;;;;;15.27;7.10;;;18.90;99.90;;;;;;5032145;28;20132;-62
2023/07/09 05:58:44;;;;;;;12.55;6.72;;;19.00;99.90;;;;;;5033644;28;20060;-61
2023/07/09 06:01:12;;;;;;;17.20;7.38;;;19.10;99.90;;;;;;5031775;28;20053;-63
2023/07/09 06:03:39;;;;;;;12.55;6.72;;;19.20;99.90;;;;;;5033284;28;20513;-62
2023/07/09 06:06:06;;;;;;;9.88;6.07;;;19.20;99.90;;;;;;5032615;28;20461;-62
2023/07/09 06:08:33;;;;;;;11.93;7.13;;;19.30;99.90;;;;;;5033305;28;20046;-62
2023/07/09 06:11:03;;;;;;;15.20;6.95;;;19.40;99.90;;;;;;5032059;28;20060;-62
2023/07/09 06:13:31;;;;;;;12.40;6.88;;;19.40;99.90;;;;;;5033129;28;20042;-63
2023/07/09 06:15:59;;;;;;;11.48;7.10;;;19.50;99.90;;;;;;5024324;28;20088;-61
2023/07/09 06:18:30;;;;;;;13.00;6.60;;;19.70;99.90;;;;;;5032749;28;20037;-62
2023/07/09 06:21:00;;;;;;;12.50;6.97;;;19.70;99.90;;;;;;5031584;28;20494;-61
2023/07/09 06:23:27;;;;;;;11.45;6.45;;;19.90;99.90;;;;;;5032870;28;20080;-62
2023/07/09 06:25:54;;;;;;;12.35;6.82;;;19.90;99.90;;;;;;5031303;28;20506;-63
2023/07/09 06:28:26;;;;;;;13.85;6.68;;;20.10;99.90;;;;;;5033036;28;20045;-62
2023/07/09 06:30:52;;;;;;;11.10;6.85;;;20.10;99.90;;;;;;5031950;28;20048;-63
2023/07/09 06:33:19;;;;;;;10.57;6.80;;;20.20;99.90;;;;;;5032780;28;20045;-63
2023/07/09 06:35:51;;;;;;;16.60;6.63;;;20.30;99.90;;;;;;5022852;28;20088;-62
2023/07/09 06:38:18;;;;;;;15.00;7.43;;;20.30;99.90;;;;;;5011332;28;20046;-63
2023/07/09 06:40:46;;;;;;;14.25;7.43;;;20.40;99.90;;;;;;5030281;28;20037;-63
2023/07/09 06:43:13;;;;;;;12.48;6.80;;;20.50;99.90;;;;;;5032181;28;20041;-63
2023/07/09 06:45:57;;;;;;;12.85;6.97;;;20.60;99.90;;;;;;5009794;28;20157;-62
2023/07/09 06:48:25;;;;;;;10.90;6.50;;;20.90;99.90;;;;;;5021196;28;20040;-62
2023/07/09 06:50:53;;;;;;;11.93;6.65;;;21.00;99.90;;;;;;5031100;28;20406;-62
2023/07/09 06:53:21;;;;;;;11.30;6.43;;;21.20;99.90;;;;;;5031907;28;20037;-62
2023/07/09 06:55:54;;;;;;;13.85;6.07;;;21.40;99.90;;;;;;5028520;28;20121;-62
2023/07/09 06:58:24;;;;;;;12.40;6.65;;;21.50;99.90;;;;;;5032177;28;20072;-62
2023/07/09 07:00:51;;;;;;;12.68;6.43;;;21.70;99.90;;;;;;5031364;28;20033;-62
2023/07/09 07:03:18;;;;;;;10.88;6.10;;;21.80;99.90;;;;;;5032376;28;20043;-62
2023/07/09 07:05:48;;;;;;;;;;;22.00;99.90;;;;;;5022885;28;20045;-62
2023/07/09 07:08:17;;;;;;;11.07;6.30;;;22.10;99.90;;;;;;5032386;28;19929;-62
2023/07/09 07:10:46;;;;;;;9.82;5.82;;;22.30;99.90;;;;;;5031623;28;20067;-62
2023/07/09 07:13:14;;;;;;;12.30;5.85;;;22.40;99.90;;;;;;5031680;28;20039;-62
2023/07/09 07:15:41;;;;;;;14.00;5.60;;;22.60;99.90;;;;;;5030082;28;20472;-62
2023/07/09 07:18:08;;;;;;;10.90;5.50;;;22.60;99.90;;;;;;5025005;28;20068;-62
2023/07/09 07:20:35;;;;;;;9.20;6.20;;;22.60;99.90;;;;;;5031599;28;20045;-62
2023/07/09 07:23:02;;;;;;;13.35;5.97;;;22.80;99.90;;;;;;5031950;28;20387;-62
2023/07/09 07:25:30;;;;;;;11.27;6.38;;;22.90;99.90;;;;;;5023154;28;20045;-61
2023/07/09 07:27:57;;;;;;;9.02;6.47;;;23.10;99.90;;;;;;5015169;28;20057;-62
2023/07/09 07:30:24;;;;;;;12.57;6.25;;;23.30;99.90;;;;;;5024597;28;20529;-63
2023/07/09 07:32:52;;;;;;;9.68;5.53;;;23.30;99.90;;;;;;5023783;28;20391;-62
2023/07/09 07:35:19;;;;;;;;;;;23.40;99.90;;;;;;5030417;28;20053;-62
2023/07/09 07:37:46;;;;;;;8.32;5.75;;;23.50;99.90;;;;;;5031647;28;19925;-62
2023/07/09 07:40:13;;;;;;;;;;;23.60;99.90;;;;;;5022960;28;20042;-62
2023/07/09 07:42:40;;;;;;;11.10;5.85;;;23.70;99.90;;;;;;5029051;28;19921;-61
2023/07/09 07:45:08;;;;;;;14.68;6.10;;;23.80;99.90;;;;;;5020864;28;20049;-62
2023/07/09 07:47:35;;;;;;;10.57;5.82;;;24.00;99.90;;;;;;5022630;28;20049;-62
2023/07/09 07:50:08;;;;;;;9.13;5.63;;;24.10;99.90;;;;;;5020021;28;20065;-63
2023/07/09 07:52:37;;;;;;;11.23;6.50;;;24.20;99.90;;;;;;5026646;28;20079;-62
2023/07/09 07:55:08;;;;;;;11.80;5.78;;;24.40;99.90;;;;;;5027705;28;20041;-62
2023/07/09 07:57:39;;;;;;;9.30;6.07;;;24.40;99.90;;;;;;5031357;28;20112;-63
2023/07/09 08:00:06;;;;;;;14.18;5.47;;;24.60;99.90;;;;;;5031127;28;20044;-63
2023/07/09 08:02:38;;;;;;;9.63;6.00;;;24.70;99.90;;;;;;5024265;28;20049;-62
2023/07/09 08:05:05;;;;;;;9.93;6.07;;;24.80;99.90;;;;;;5030364;28;20121;-62
2023/07/09 08:07:32;;;;;;;9.52;5.72;;;24.80;99.90;;;;;;5031059;28;20041;-62
2023/07/09 08:09:59;;;;;;;11.98;6.10;;;24.90;99.90;;;;;;5024100;28;20060;-63
2023/07/09 08:12:26;;;;;;;11.70;5.85;;;25.00;99.90;;;;;;5008985;28;20141;-62
2023/07/09 08:14:52;;;;;;;10.80;6.07;;;25.00;99.90;;;;;;5020383;28;20037;-62
2023/07/09 08:17:19;;;;;;;10.52;6.22;;;25.10;99.90;;;;;;5030626;28;20037;-63
2023/07/09 08:19:51;;;;;;;8.65;5.57;;;25.20;99.90;;;;;;5030683;28;20383;-62
2023/07/09 08:22:20;;;;;;;9.75;5.50;;;25.30;99.90;;;;;;5020696;28;20037;-63
2023/07/09 08:24:48;;;;;;;9.77;6.03;;;25.60;99.90;;;;;;5030772;28;20046;-62
2023/07/09 08:27:15;;;;;;;9.52;5.28;;;25.80;99.90;;;;;;5030659;28;20041;-63
2023/07/09 08:29:42;;;;;;;;;;;26.00;99.90;;;;;;5026468;28;20044;-63
2023/07/09 08:32:10;;;;;;;9.73;5.75;;;26.10;99.90;;;;;;5024336;28;19928;-63
2023/07/09 08:34:38;;;;;;;7.82;5.53;;;26.10;99.90;;;;;;5029630;28;20554;-63
2023/07/09 08:37:20;;;;;;;10.50;5.72;;;26.30;99.90;;;;;;5018382;28;20045;-62
2023/07/09 08:39:47;;;;;;;7.50;5.40;;;26.30;99.90;;;;;;5029981;28;20409;-63
2023/07/09 08:42:27;;;;;;;10.00;5.90;;;26.40;99.90;;;;;;5021826;28;20049;-64
2023/07/09 08:45:11;;;;;;;10.93;6.85;;;26.70;99.90;;;;;;5030366;28;20037;-64
2023/07/09 08:48:08;;;;;;;8.73;5.80;;;26.80;99.90;;;;;;5025814;28;20046;-64
2023/07/09 08:50:40;;;;;;;8.02;5.45;;;26.90;99.90;;;;;;5033612;28;20033;-64
2023/07/09 08:53:21;;;;;;;9.45;5.85;;;27.00;99.90;;;;;;5022464;28;20056;-64
2023/07/09 08:55:50;;;;;;;8.68;5.60;;;27.20;99.90;;;;;;5034435;28;20037;-64
2023/07/09 08:58:24;;;;;;;8.45;5.40;;;27.30;99.90;;;;;;5034007;28;20041;-64
2023/07/09 09:00:57;;;;;;;10.82;5.90;;;27.30;99.90;;;;;;5034072;28;20441;-64
2023/07/09 09:03:46;;;;;;;9.60;5.97;;;27.40;99.90;;;;;;5027108;28;20052;-64
2023/07/09 09:06:19;;;;;;;9.80;5.93;;;27.40;99.90;;;;;;5033652;28;20056;-64
2023/07/09 09:08:54;;;;;;;9.82;5.88;;;27.40;99.90;;;;;;5034484;28;20049;-63
2023/07/09 09:11:48;;;;;;;9.98;6.20;;;27.40;99.90;;;;;;5021610;28;20517;-64
2023/07/09 09:14:27;;;;;;;10.25;5.78;;;27.50;99.90;;;;;;5028030;28;20068;-64
2023/07/09 09:16:55;;;;;;;8.45;5.70;;;27.50;99.90;;;;;;5033625;28;20564;-64
2023/07/09 09:19:44;;;;;;;9.70;6.40;;;27.50;99.90;;;;;;5015733;28;20041;-64
2023/07/09 09:22:15;;;;;;;10.07;5.90;;;27.40;99.90;;;;;;5034088;28;20060;-63
2023/07/09 09:25:15;;;;;;;7.47;5.43;;;27.40;99.90;;;;;;5033836;28;20406;-64
2023/07/09 09:27:42;;;;;;;13.25;6.32;;;27.50;99.90;;;;;;5029453;28;20045;-64
2023/07/09 09:30:17;;;;;;;7.93;5.93;;;27.60;99.90;;;;;;5029858;28;20084;-64
2023/07/09 09:32:54;;;;;;;9.43;5.22;;;27.70;99.90;;;;;;5032241;28;20065;-64
2023/07/09 09:35:34;;;;;;;9.20;5.55;;;27.80;99.90;;;;;;5025170;28;20394;-64
2023/07/09 09:38:02;;;;;;;9.82;4.57;;;27.90;99.90;;;;;;5033152;28;20482;-64
2023/07/09 09:40:34;;;;;;;8.23;5.03;;;28.00;99.90;;;;;;5034059;28;20044;-64
2023/07/09 09:43:02;;;;;;;12.25;5.53;;;28.10;99.90;;;;;;5032833;28;20056;-64
2023/07/09 09:45:35;;;;;;;10.65;5.97;;;28.30;99.90;;;;;;5011186;28;20042;-64
2023/07/09 09:48:13;;;;;;;9.55;5.50;;;28.30;99.90;;;;;;5022515;28;20498;-64
2023/07/09 09:50:41;;;;;;;8.10;5.60;;;28.30;99.90;;;;;;5033585;28;20216;-64
2023/07/09 09:53:11;;;;;;;7.47;5.10;;;28.50;99.90;;;;;;5032840;28;20045;-64
2023/07/09 09:55:39;;;;;;;8.90;4.78;;;28.70;99.90;;;;;;5023363;28;20045;-64
2023/07/09 09:58:14;;;;;;;8.82;4.90;;;28.80;99.90;;;;;;5033545;28;20049;-64
2023/07/09 10:00:47;;;;;;;6.80;4.85;;;28.90;99.90;;;;;;5032875;28;20037;-64
2023/07/09 10:03:14;;;;;;;10.73;5.63;;;29.00;99.90;;;;;;5032817;28;20045;-64
2023/07/09 10:05:52;;;;;;;10.18;5.07;;;29.10;99.90;;;;;;5024508;28;20557;-64
2023/07/09 10:08:51;;;;;;;8.65;5.18;;;29.00;99.90;;;;;;5033042;28;20543;-64
2023/07/09 10:11:36;;;;;;;10.00;5.72;;;28.90;99.90;;;;;;5032899;28;20041;-64
2023/07/09 10:14:12;;;;;;;9.93;5.38;;;28.80;99.90;;;;;;5030368;28;20056;-64
2023/07/09 10:16:47;;;;;;;5.88;4.53;;;28.90;99.90;;;;;;5030232;28;20096;-64
2023/07/09 10:19:25;;;;;;;9.40;5.18;;;28.90;99.50;;;;;;5032007;28;20045;-64
2023/07/09 10:22:05;;;;;;;8.50;5.05;;;29.10;99.80;;;;;;5033159;28;20043;-64
2023/07/09 10:24:58;;;;;;;9.45;4.93;;;29.30;99.90;;;;;;5026608;28;20048;-64
2023/07/09 10:27:46;;;;;;;9.27;4.70;;;29.30;99.20;;;;;;5031680;28;20478;-64
2023/07/09 10:30:30;;;;;;;6.03;4.07;;;29.50;98.60;;;;;;5032497;28;20044;-64
2023/07/09 10:33:09;;;;;;;7.40;4.60;;;29.60;97.50;;;;;;5026716;28;20052;-64
2023/07/09 10:35:42;;;;;;;6.93;4.10;;;29.80;96.80;;;;;;5032352;28;20091;-65
2023/07/09 10:38:11;;;;;;;6.53;4.30;;;29.90;96.30;;;;;;5032207;28;20046;-63
2023/07/09 10:40:43;;;;;;;6.47;4.00;;;30.10;96.10;;;;;;5031668;28;20054;-64
2023/07/09 10:43:36;;;;;;;5.15;3.70;;;30.20;95.40;;;;;;5027729;28;20054;-64
2023/07/09 10:46:25;;;;;;;7.38;4.35;;;30.30;94.80;;;;;;5024879;28;20064;-64
2023/07/09 10:48:54;;;;;;;7.35;3.90;;;30.50;94.40;;;;;;5032063;28;20091;-64
2023/07/09 10:51:32;;;;;;;6.38;3.80;;;30.70;93.30;;;;;;5027132;28;20045;-64
2023/07/09 10:54:28;;;;;;;8.77;3.88;;;30.90;93.10;;;;;;5010684;28;20050;-64
2023/07/09 10:57:03;;;;;;;9.40;4.30;;;30.80;93.60;;;;;;5028036;28;20037;-63
2023/07/09 10:59:36;;;;;;;5.97;3.03;;;30.80;93.60;;;;;;5031389;28;20044;-64
2023/07/09 11:02:25;;;;;;;5.05;3.80;;;30.60;90.70;;;;;;5032281;28;20064;-64
2023/07/09 11:04:56;;;;;;;7.07;3.40;;;30.70;87.20;;;;;;5030660;28;20046;-64
2023/07/09 11:07:33;;;;;;;5.03;3.17;;;30.60;87.80;;;;;;5027195;28;20060;-64
2023/07/09 11:10:05;;;;;;;10.60;3.65;;;30.90;88.30;;;;;;5031121;28;20495;-64
2023/07/09 11:12:39;;;;;;;6.93;3.70;;;31.00;88.90;;;;;;5024555;28;20038;-64
2023/07/09 11:15:13;;;;;;;4.13;3.25;;;31.00;88.50;;;;;;5025577;28;20050;-64
2023/07/09 11:17:44;;;;;;;5.50;4.07;;;31.10;84.90;;;;;;5031727;28;20060;-64
2023/07/09 11:20:25;;;;;;;6.20;3.55;;;31.20;87.20;;;;;;5031372;28;20048;-64
2023/07/09 11:22:54;;;;;;;6.10;3.80;;;31.30;88.70;;;;;;5027140;28;20038;-64
2023/07/09 11:25:43;;;;;;;5.38;3.70;;;31.40;88.10;;;;;;5027701;28;20049;-64
2023/07/09 11:28:10;;;;;;;6.65;3.22;;;31.20;88.10;;;;;;5020145;28;20044;-64
2023/07/09 11:30:49;;;;;;;5.45;3.47;;;31.30;87.10;;;;;;5030647;28;20550;-64
2023/07/09 11:33:26;;;;;;;4.43;3.70;;;31.40;83.60;;;;;;5029898;28;20041;-64
2023/07/09 11:36:11;;;;;;;6.03;3.97;;;31.60;82.10;;;;;;5028983;28;20034;-64
2023/07/09 11:38:41;;;;;;;6.45;3.30;;;31.80;85.40;;;;;;5031370;28;20055;-64
2023/07/09 11:41:25;;;;;;;5.65;3.50;;;31.60;85.90;;;;;;5031341;28;20049;-64
2023/07/09 11:43:52;;;;;;;6.85;3.25;;;31.40;80.90;;;;;;5027126;28;20048;-64
2023/07/09 11:46:26;;;;;;;10.77;3.70;;;31.40;82.50;;;;;;5029267;28;20398;-64
2023/07/09 11:48:57;;;;;;;5.47;3.20;;;31.70;80.50;;;;;;5031274;28;20037;-64
2023/07/09 11:51:50;;;;;;;4.90;3.35;;;31.80;79.90;;;;;;5029114;28;20042;-64
2023/07/09 11:54:18;;;;;;;7.78;3.67;;;31.90;80.60;;;;;;5028559;28;20042;-64
2023/07/09 11:56:56;;;;;;;6.60;3.25;;;32.20;79.70;;;;;;5030512;28;20393;-64
2023/07/09 11:59:23;;;;;;;5.22;3.53;;;32.20;77.10;;;;;;5029067;28;20387;-64
2023/07/09 12:01:54;;;;;;;6.28;3.25;;;32.10;77.50;;;;;;5025910;28;20034;-64
2023/07/09 12:04:32;;;;;;;7.38;4.13;;;32.10;76.50;;;;;;5030483;28;20566;-64
2023/07/09 12:07:01;;;;;;;5.38;3.78;;;32.40;77.20;;;;;;5030799;28;20197;-64
2023/07/09 12:09:38;;;;;;;6.03;3.90;;;32.50;80.10;;;;;;5030722;28;20060;-64
2023/07/09 12:12:16;;;;;;;6.32;4.18;;;32.30;77.90;;;;;;5022335;28;20056;-64
2023/07/09 12:14:42;;;;;;;5.47;3.42;;;32.30;79.20;;;;;;5023720;28;20045;-64
2023/07/09 12:17:09;;;;;;;7.20;4.15;;;32.30;79.30;;;;;;5030225;28;20049;-64
2023/07/09 12:19:36;;;;;;;5.50;4.10;;;32.30;79.00;;;;;;5033590;28;20056;-64
2023/07/09 12:22:10;;;;;;;9.15;4.32;;;32.30;81.90;;;;;;5038007;28;20053;-64
2023/07/09 12:24:41;;;;;;;7.10;3.95;;;32.20;81.60;;;;;;5028837;28;20049;-64
2023/07/09 12:27:23;;;;;;;4.97;3.58;;;32.10;81.00;;;;;;5036903;28;20498;-64
2023/07/09 12:29:53;;;;;;;6.25;3.65;;;32.30;80.30;;;;;;5030436;28;20041;-64
2023/07/09 12:32:22;;;;;;;6.38;4.10;;;32.40;82.20;;;;;;5029803;28;20517;-64
2023/07/09 12:34:54;;;;;;;7.20;3.90;;;32.40;78.70;;;;;;5036327;28;20045;-64
2023/07/09 12:37:22;;;;;;;7.68;4.28;;;32.40;81.30;;;;;;5037210;28;20433;-64
2023/07/09 12:39:52;;;;;;;7.82;4.50;;;32.50;81.30;;;;;;5036359;28;20544;-64
2023/07/09 12:42:24;;;;;;;7.45;4.78;;;32.70;80.40;;;;;;5037196;28;20037;-64
2023/07/09 12:44:51;;;;;;;12.32;4.60;;;32.50;83.70;;;;;;5027661;28;20052;-64
2023/07/09 12:47:20;;;;;;;9.38;4.95;;;32.50;82.90;;;;;;5036934;28;20417;-64
2023/07/09 12:49:51;;;;;;;5.50;4.07;;;32.30;83.70;;;;;;5036586;28;20383;-64
2023/07/09 12:52:20;;;;;;;9.02;4.75;;;32.20;82.90;;;;;;5036963;28;20046;-64
2023/07/09 12:55:00;;;;;;;7.35;4.63;;;32.00;83.90;;;;;;5036145;28;20053;-64
2023/07/09 12:57:28;;;;;;;7.00;4.30;;;32.00;83.10;;;;;;5037057;28;20053;-64
2023/07/09 12:59:56;;;;;;;5.20;4.22;;;32.00;82.10;;;;;;5036335;28;20053;-63
2023/07/09 13:02:25;;;;;;;8.65;4.40;;;31.90;80.90;;;;;;5036881;28;20038;-64